createdAt,value
2018-08-03T00:01:20.079Z,20.80
2018-08-03T00:03:48.497Z,20.70
2018-08-03T00:06:16.957Z,20.70
2018-08-03T00:08:45.429Z,20.60
2018-08-03T00:11:13.955Z,20.60
2018-08-03T00:13:42.730Z,20.50
2018-08-03T00:16:11.585Z,20.50
2018-08-03T00:18:40.098Z,20.50
2018-08-03T00:21:08.989Z,20.50
2018-08-03T00:23:37.828Z,20.50
2018-08-03T00:26:06.722Z,20.40
2018-08-03T00:29:00.618Z,20.30
2018-08-03T00:31:29.067Z,20.30
2018-08-03T00:33:57.820Z,20.20
2018-08-03T00:36:26.245Z,20.20
2018-08-03T00:38:54.715Z,20.20
2018-08-03T00:41:23.253Z,20.10
2018-08-03T00:43:51.729Z,20.10
2018-08-03T00:46:20.335Z,20.10
2018-08-03T00:48:48.949Z,20.10
2018-08-03T00:51:17.887Z,20.00
2018-08-03T00:53:46.433Z,20.00
2018-08-03T00:56:14.961Z,19.90
2018-08-03T00:58:43.377Z,19.90
2018-08-03T01:01:11.884Z,20.00
2018-08-03T01:03:40.565Z,19.90
2018-08-03T01:06:09.389Z,19.90
2018-08-03T01:08:37.956Z,19.80
2018-08-03T01:11:06.586Z,19.80
2018-08-03T01:13:35.445Z,19.70
2018-08-03T01:16:04.198Z,19.70
2018-08-03T01:18:33.036Z,19.60
2018-08-03T01:21:01.944Z,19.60
2018-08-03T01:23:31.145Z,19.60
2018-08-03T01:25:59.612Z,19.50
2018-08-03T01:28:28.411Z,19.50
2018-08-03T01:30:57.052Z,19.50
2018-08-03T01:33:25.440Z,19.50
2018-08-03T01:35:53.995Z,19.50
2018-08-03T01:38:22.628Z,19.40
2018-08-03T01:40:51.093Z,19.30
2018-08-03T01:43:19.527Z,19.10
2018-08-03T01:45:47.993Z,19.10
2018-08-03T01:48:16.440Z,19.00
2018-08-03T01:50:45.320Z,18.90
2018-08-03T01:53:13.986Z,19.00
2018-08-03T01:55:42.565Z,19.00
2018-08-03T01:58:11.008Z,19.00
2018-08-03T02:00:39.484Z,19.00
2018-08-03T02:03:07.919Z,19.00
2018-08-03T02:05:36.762Z,19.00
2018-08-03T02:08:05.309Z,18.90
2018-08-03T02:10:33.998Z,18.70
2018-08-03T02:13:02.565Z,18.80
2018-08-03T02:15:31.237Z,18.80
2018-08-03T02:17:59.701Z,18.80
2018-08-03T02:20:28.252Z,18.70
2018-08-03T02:22:56.881Z,18.70
2018-08-03T02:25:25.425Z,18.60
2018-08-03T02:27:54.179Z,18.70
2018-08-03T02:30:22.677Z,18.70
2018-08-03T02:32:51.339Z,18.70
2018-08-03T02:35:19.834Z,18.60
2018-08-03T02:37:48.443Z,18.50
2018-08-03T02:40:16.945Z,18.50
2018-08-03T02:42:45.609Z,18.50
2018-08-03T02:45:14.218Z,18.60
2018-08-03T02:47:42.839Z,18.60
2018-08-03T02:50:11.381Z,18.50
2018-08-03T02:52:39.794Z,18.50
2018-08-03T02:55:08.220Z,18.50
2018-08-03T02:57:36.899Z,18.60
2018-08-03T03:00:05.481Z,18.60
2018-08-03T03:02:34.145Z,18.50
2018-08-03T03:05:02.580Z,18.40
2018-08-03T03:07:31.054Z,18.30
2018-08-03T03:09:59.884Z,18.20
2018-08-03T03:12:28.794Z,18.10
2018-08-03T03:14:57.488Z,18.10
2018-08-03T03:17:25.995Z,18.20
2018-08-03T03:19:54.578Z,18.20
2018-08-03T03:22:23.062Z,18.20
2018-08-03T03:24:52.155Z,18.10
2018-08-03T03:27:20.676Z,17.90
2018-08-03T03:29:49.117Z,17.90
2018-08-03T03:32:17.804Z,18.00
2018-08-03T03:34:46.465Z,18.00
2018-08-03T03:37:15.195Z,18.00
2018-08-03T03:39:43.656Z,18.00
2018-08-03T03:42:12.149Z,17.90
2018-08-03T03:44:40.830Z,18.00
2018-08-03T03:47:09.474Z,17.90
2018-08-03T03:49:38.083Z,17.90
2018-08-03T03:52:06.549Z,18.00
2018-08-03T03:54:35.066Z,18.00
2018-08-03T03:57:03.686Z,18.00
2018-08-03T03:59:32.093Z,18.00
2018-08-03T04:02:00.513Z,18.00
2018-08-03T04:04:29.065Z,18.00
2018-08-03T04:06:57.848Z,17.90
2018-08-03T04:09:26.277Z,17.90
2018-08-03T04:11:54.709Z,17.90
2018-08-03T04:14:23.127Z,17.90
2018-08-03T04:16:52.095Z,17.90
2018-08-03T04:19:20.481Z,17.90
2018-08-03T04:21:49.280Z,18.00
2018-08-03T04:24:17.695Z,18.00
2018-08-03T04:26:46.144Z,18.00
2018-08-03T04:29:14.594Z,17.90
2018-08-03T04:31:43.152Z,17.90
2018-08-03T04:34:11.595Z,17.90
2018-08-03T04:36:40.029Z,18.00
2018-08-03T04:39:08.916Z,18.10
2018-08-03T04:41:37.409Z,18.10
2018-08-03T04:44:05.890Z,18.20
2018-08-03T04:46:34.306Z,18.20
2018-08-03T04:49:02.891Z,18.30
2018-08-03T04:51:31.517Z,18.40
2018-08-03T04:53:59.941Z,18.40
2018-08-03T04:56:28.801Z,18.50
2018-08-03T04:58:57.194Z,18.60
2018-08-03T05:01:25.725Z,18.70
2018-08-03T05:03:54.315Z,18.80
2018-08-03T05:06:23.874Z,19.00
2018-08-03T05:08:52.865Z,19.10
2018-08-03T05:11:21.497Z,19.20
2018-08-03T05:13:52.227Z,19.40
2018-08-03T05:16:20.817Z,19.50
2018-08-03T05:18:49.451Z,19.70
2018-08-03T05:21:18.101Z,19.80
2018-08-03T05:23:46.629Z,20.00
2018-08-03T05:26:15.225Z,20.30
2018-08-03T05:28:43.865Z,20.50
2018-08-03T05:31:13.018Z,20.70
2018-08-03T05:33:41.590Z,20.90
2018-08-03T05:36:10.719Z,21.10
2018-08-03T05:38:40.553Z,21.20
2018-08-03T05:41:09.902Z,21.40
2018-08-03T05:43:38.873Z,21.50
2018-08-03T05:46:07.727Z,21.70
2018-08-03T05:48:36.135Z,21.90
2018-08-03T05:51:04.937Z,22.10
2018-08-03T05:53:42.165Z,22.70
2018-08-03T05:56:10.705Z,22.70
2018-08-03T05:58:39.237Z,22.70
2018-08-03T06:01:08.347Z,23.10
2018-08-03T06:03:38.132Z,23.50
2018-08-03T06:06:08.110Z,23.80
2018-08-03T06:08:36.873Z,24.00
2018-08-03T06:11:23.169Z,24.20
2018-08-03T06:25:21.738Z,24.90
2018-08-03T06:27:51.552Z,25.10
2018-08-03T06:30:20.444Z,25.50
2018-08-03T06:32:50.189Z,25.60
2018-08-03T06:35:19.021Z,25.90
2018-08-03T06:37:47.661Z,26.20
2018-08-03T06:40:16.461Z,26.40
2018-08-03T06:42:45.649Z,26.70
2018-08-03T06:45:16.503Z,26.90
2018-08-03T06:47:45.642Z,26.90
2018-08-03T06:50:14.207Z,27.00
2018-08-03T06:52:43.135Z,27.20
2018-08-03T06:55:11.717Z,26.90
2018-08-03T06:57:40.620Z,26.50
2018-08-03T07:00:09.427Z,26.90
2018-08-03T07:02:38.221Z,27.30
2018-08-03T07:05:06.702Z,27.70
2018-08-03T07:07:36.447Z,28.00
2018-08-03T07:10:10.549Z,28.20
2018-08-03T07:12:39.124Z,28.20
2018-08-03T07:15:10.002Z,28.50
2018-08-03T07:17:38.470Z,28.10
2018-08-03T07:20:08.257Z,27.40
2018-08-03T07:22:37.086Z,27.30
2018-08-03T07:25:05.764Z,27.30
2018-08-03T07:27:34.269Z,27.50
2018-08-03T07:30:03.614Z,28.00
2018-08-03T07:32:33.167Z,27.90
2018-08-03T07:35:01.915Z,27.20
2018-08-03T07:37:30.575Z,27.30
2018-08-03T07:39:59.365Z,27.60
2018-08-03T07:42:30.829Z,27.70
2018-08-03T07:44:59.469Z,28.10
2018-08-03T07:47:28.095Z,27.90
2018-08-03T07:49:57.335Z,28.30
2018-08-03T07:52:25.880Z,28.70
2018-08-03T07:54:54.485Z,29.00
2018-08-03T07:57:25.072Z,28.90
2018-08-03T07:59:55.132Z,29.00
2018-08-03T08:05:14.076Z,29.00
2018-08-03T08:07:42.846Z,28.80
2018-08-03T08:10:13.063Z,29.40
2018-08-03T08:12:43.953Z,30.30
2018-08-03T08:18:05.955Z,30.20
2018-08-03T08:20:34.535Z,29.80
2018-08-03T08:23:03.179Z,30.00
2018-08-03T08:25:31.973Z,30.70
2018-08-03T08:28:00.564Z,30.40
2018-08-03T08:30:29.539Z,30.50
2018-08-03T08:32:58.654Z,30.60
2018-08-03T08:35:27.238Z,30.90
2018-08-03T08:37:55.784Z,31.40
2018-08-03T08:40:24.352Z,31.00
2018-08-03T08:42:52.878Z,31.20
2018-08-03T08:45:21.533Z,31.50
2018-08-03T08:47:56.088Z,31.80
2018-08-03T08:55:02.347Z,31.50
2018-08-03T09:00:24.247Z,32.40
2018-08-03T09:02:52.865Z,32.80
2018-08-03T09:05:21.684Z,33.00
2018-08-03T09:07:50.754Z,32.70
2018-08-03T09:10:29.705Z,31.90
2018-08-03T09:12:58.838Z,31.50
2018-08-03T09:15:44.033Z,31.60
2018-08-03T09:18:12.685Z,31.90
2018-08-03T09:20:41.442Z,31.70
2018-08-03T09:26:23.449Z,32.20
2018-08-03T09:28:52.104Z,33.00
2018-08-03T09:34:24.211Z,33.10
2018-08-03T09:39:58.222Z,33.20
2018-08-03T09:42:27.018Z,32.90
2018-08-03T09:44:56.338Z,33.10
2018-08-03T09:47:25.027Z,32.90
2018-08-03T09:49:55.702Z,33.10
2018-08-03T09:52:24.454Z,33.50
2018-08-03T09:54:56.730Z,32.90
2018-08-03T09:57:39.789Z,32.80
2018-08-03T10:00:09.510Z,32.40
2018-08-03T10:02:38.441Z,32.40
2018-08-03T10:05:06.981Z,32.30
2018-08-03T10:07:35.541Z,32.70
2018-08-03T10:13:18.677Z,32.40
2018-08-03T10:16:10.680Z,33.00
2018-08-03T10:18:39.320Z,33.20
2018-08-03T10:21:08.356Z,33.10
2018-08-03T10:26:38.291Z,32.80
2018-08-03T10:29:07.117Z,33.00
2018-08-03T10:31:36.167Z,33.10
2018-08-03T10:34:04.994Z,32.80
2018-08-03T10:36:33.665Z,32.80
2018-08-03T10:39:02.525Z,33.40
2018-08-03T10:41:43.400Z,33.30
2018-08-03T10:44:12.229Z,33.00
2018-08-03T10:46:41.245Z,32.60
2018-08-03T10:49:09.930Z,32.80
2018-08-03T10:51:38.746Z,33.30
2018-08-03T10:54:07.830Z,33.90
2018-08-03T10:56:36.620Z,33.00
2018-08-03T10:59:05.734Z,33.10
2018-08-03T11:01:34.501Z,33.00
2018-08-03T11:04:03.342Z,33.40
2018-08-03T11:06:31.809Z,33.50
2018-08-03T11:09:00.766Z,33.50
2018-08-03T11:11:29.713Z,33.80
2018-08-03T11:13:58.497Z,34.10
2018-08-03T11:16:27.115Z,34.50
2018-08-03T11:18:56.014Z,34.90
2018-08-03T11:21:24.630Z,35.20
2018-08-03T11:23:53.349Z,35.50
2018-08-03T11:26:22.182Z,35.40
2018-08-03T11:28:56.168Z,35.70
2018-08-03T11:31:24.846Z,35.60
2018-08-03T11:33:53.621Z,35.50
2018-08-03T11:36:22.287Z,35.00
2018-08-03T11:38:50.925Z,34.90
2018-08-03T11:41:20.026Z,35.00
2018-08-03T11:43:55.020Z,35.30
2018-08-03T11:46:23.616Z,35.90
2018-08-03T11:48:52.794Z,35.00
2018-08-03T11:51:21.618Z,34.80
2018-08-03T11:53:50.266Z,33.70
2018-08-03T11:56:18.975Z,33.50
2018-08-03T11:58:47.991Z,33.90
2018-08-03T12:01:16.773Z,34.20
2018-08-03T12:03:45.619Z,33.90
2018-08-03T12:06:14.709Z,34.20
2018-08-03T12:08:43.654Z,34.40
2018-08-03T12:11:12.699Z,34.70
2018-08-03T12:13:41.784Z,35.40
2018-08-03T12:16:10.639Z,34.60
2018-08-03T12:18:39.625Z,33.70
2018-08-03T12:21:08.459Z,35.10
2018-08-03T12:23:37.475Z,35.90
2018-08-03T12:26:18.823Z,35.40
2018-08-03T12:28:47.372Z,36.20
2018-08-03T12:31:15.951Z,35.90
2018-08-03T12:33:51.741Z,35.40
2018-08-03T12:36:21.153Z,35.40
2018-08-03T12:38:50.090Z,35.50
2018-08-03T12:41:19.247Z,36.20
2018-08-03T12:43:49.230Z,36.70
2018-08-03T12:46:18.737Z,36.70
2018-08-03T12:48:47.583Z,36.40
2018-08-03T12:51:16.270Z,36.00
2018-08-03T12:53:45.029Z,36.80
2018-08-03T12:56:13.769Z,37.80
2018-08-03T12:58:48.806Z,38.40
2018-08-03T13:01:21.757Z,38.30
2018-08-03T13:03:51.285Z,37.70
2018-08-03T13:06:19.923Z,36.70
2018-08-03T13:08:48.931Z,36.50
2018-08-03T13:11:33.100Z,35.90
2018-08-03T13:14:02.061Z,35.80
2018-08-03T13:16:30.979Z,34.70
2018-08-03T13:18:59.617Z,34.00
2018-08-03T13:21:38.190Z,34.90
2018-08-03T13:24:07.953Z,34.40
2018-08-03T13:26:36.888Z,34.50
2018-08-03T13:29:05.602Z,35.50
2018-08-03T13:31:34.430Z,36.40
2018-08-03T13:34:03.498Z,36.10
2018-08-03T13:36:32.573Z,36.00
2018-08-03T13:39:01.743Z,35.40
2018-08-03T13:41:30.527Z,35.20
2018-08-03T13:43:59.110Z,34.90
2018-08-03T13:46:27.934Z,34.90
2018-08-03T13:48:56.553Z,34.80
2018-08-03T13:51:25.140Z,34.30
2018-08-03T13:53:53.629Z,34.40
2018-08-03T13:56:22.299Z,34.40
2018-08-03T13:58:51.363Z,34.30
2018-08-03T14:01:31.345Z,34.50
2018-08-03T14:04:00.271Z,34.60
2018-08-03T14:06:28.851Z,34.40
2018-08-03T14:08:57.702Z,34.20
2018-08-03T14:11:26.658Z,34.50
2018-08-03T14:13:55.545Z,34.60
2018-08-03T14:16:24.198Z,34.20
2018-08-03T14:18:52.721Z,33.90
2018-08-03T14:21:22.237Z,34.20
2018-08-03T14:23:50.749Z,34.40
2018-08-03T14:26:19.326Z,34.30
2018-08-03T14:28:48.018Z,33.90
2018-08-03T14:31:16.968Z,33.90
2018-08-03T14:33:45.535Z,33.80
2018-08-03T14:36:14.054Z,33.70
2018-08-03T14:38:42.649Z,33.80
2018-08-03T14:41:11.587Z,33.50
2018-08-03T14:43:40.330Z,33.80
2018-08-03T14:46:08.945Z,33.90
2018-08-03T14:48:37.870Z,33.90
2018-08-03T14:51:07.182Z,33.70
2018-08-03T14:53:36.008Z,33.50
2018-08-03T14:56:04.622Z,33.50
2018-08-03T14:58:33.397Z,33.30
2018-08-03T15:01:02.009Z,33.20
2018-08-03T15:03:30.523Z,33.30
2018-08-03T15:05:58.944Z,33.20
2018-08-03T15:08:27.377Z,33.40
2018-08-03T15:10:56.608Z,33.50
2018-08-03T15:13:25.240Z,33.70
2018-08-03T15:15:53.961Z,33.50
2018-08-03T15:18:22.611Z,33.60
2018-08-03T15:20:51.454Z,33.50
2018-08-03T15:23:20.178Z,33.30
2018-08-03T15:25:48.993Z,33.10
2018-08-03T15:28:17.714Z,33.20
2018-08-03T15:30:46.209Z,33.40
2018-08-03T15:33:14.817Z,33.50
2018-08-03T15:35:43.291Z,33.70
2018-08-03T15:38:11.761Z,33.70
2018-08-03T15:40:40.263Z,33.60
2018-08-03T15:43:09.050Z,33.70
2018-08-03T15:45:37.584Z,33.40
2018-08-03T15:48:06.029Z,33.30
2018-08-03T15:50:34.460Z,33.40
2018-08-03T15:53:03.738Z,33.50
2018-08-03T15:55:32.762Z,33.50
2018-08-03T15:58:01.349Z,33.40
2018-08-03T16:00:30.200Z,33.20
2018-08-03T16:02:58.666Z,33.10
2018-08-03T16:05:27.689Z,32.90
2018-08-03T16:07:56.547Z,32.90
2018-08-03T16:10:24.989Z,32.90
2018-08-03T16:12:53.525Z,32.90
2018-08-03T16:15:22.481Z,32.80
2018-08-03T16:17:51.225Z,32.80
2018-08-03T16:20:19.771Z,32.80
2018-08-03T16:22:48.265Z,32.70
2018-08-03T16:25:16.738Z,32.50
2018-08-03T16:27:46.183Z,32.60
2018-08-03T16:30:14.979Z,32.70
2018-08-03T16:32:43.562Z,32.60
2018-08-03T16:35:12.509Z,32.70
2018-08-03T16:37:40.962Z,32.80
2018-08-03T16:40:10.341Z,33.20
2018-08-03T16:42:39.237Z,33.40
2018-08-03T16:45:08.724Z,33.50
2018-08-03T16:47:38.341Z,33.30
2018-08-03T16:50:07.598Z,33.20
2018-08-03T16:52:36.182Z,33.30
2018-08-03T16:55:05.383Z,33.30
2018-08-03T16:57:33.902Z,33.40
2018-08-03T17:00:02.463Z,33.20
2018-08-03T17:02:31.193Z,33.00
2018-08-03T17:05:01.150Z,32.90
2018-08-03T17:07:30.935Z,32.80
2018-08-03T17:09:59.424Z,32.70
2018-08-03T17:12:27.868Z,32.60
2018-08-03T17:14:56.567Z,32.40
2018-08-03T17:17:25.698Z,32.30
2018-08-03T17:19:54.530Z,32.20
2018-08-03T17:22:23.277Z,32.00
2018-08-03T17:24:52.278Z,32.00
2018-08-03T17:27:21.003Z,31.90
2018-08-03T17:29:49.773Z,31.90
2018-08-03T17:32:18.841Z,31.80
2018-08-03T17:34:47.613Z,31.80
2018-08-03T17:37:16.440Z,31.80
2018-08-03T17:39:45.225Z,31.70
2018-08-03T17:42:14.022Z,31.60
2018-08-03T17:44:42.678Z,31.50
2018-08-03T17:47:15.853Z,31.50
2018-08-03T17:49:44.470Z,31.40
2018-08-03T17:52:13.036Z,31.30
2018-08-03T17:54:41.574Z,31.30
2018-08-03T17:57:10.350Z,31.20
2018-08-03T17:59:39.342Z,31.10
2018-08-03T18:02:07.943Z,31.10
2018-08-03T18:04:36.786Z,31.00
2018-08-03T18:07:05.475Z,31.00
2018-08-03T18:26:53.318Z,30.70
2018-08-03T18:29:22.282Z,30.70
2018-08-03T18:31:51.282Z,30.70
2018-08-03T18:34:24.506Z,30.60
2018-08-03T18:36:53.416Z,30.60
2018-08-03T18:39:22.125Z,30.60
2018-08-03T18:41:51.465Z,30.50
2018-08-03T18:44:24.378Z,30.50
2018-08-03T18:47:04.030Z,30.50
2018-08-03T18:49:32.794Z,30.40
2018-08-03T18:52:01.682Z,30.40
2018-08-03T19:12:00.499Z,29.80
2018-08-03T19:14:29.533Z,29.70
2018-08-03T19:16:58.381Z,29.60
2018-08-03T19:19:27.185Z,29.60
2018-08-03T19:21:56.358Z,29.50
2018-08-03T19:24:25.746Z,29.40
2018-08-03T19:26:55.070Z,29.40
2018-08-03T19:29:23.712Z,29.30
2018-08-03T19:31:52.491Z,29.20
2018-08-03T19:34:23.844Z,29.10
2018-08-03T19:36:52.796Z,29.10
2018-08-03T19:39:21.757Z,29.00
2018-08-03T19:41:50.525Z,29.00
2018-08-03T19:44:19.194Z,29.00
2018-08-03T19:46:48.134Z,28.80
2018-08-03T19:49:16.957Z,28.80
2018-08-03T19:51:46.194Z,28.70
2018-08-03T19:54:14.934Z,28.60
2018-08-03T19:56:43.837Z,28.50
2018-08-03T19:59:12.646Z,28.50
2018-08-03T20:01:41.399Z,28.50
2018-08-03T20:04:09.899Z,28.40
2018-08-03T20:06:38.501Z,28.40
2018-08-03T20:09:09.037Z,28.30
2018-08-03T20:11:37.687Z,28.20
2018-08-03T20:14:14.273Z,28.20
2018-08-03T20:16:42.829Z,28.20
2018-08-03T20:19:11.901Z,28.10
2018-08-03T20:21:41.259Z,28.10
2018-08-03T20:24:09.810Z,27.90
2018-08-03T20:26:39.067Z,27.90
2018-08-03T20:29:07.805Z,27.80
2018-08-03T20:31:36.651Z,27.70
2018-08-03T20:34:05.527Z,27.50
2018-08-03T20:36:36.491Z,27.50
2018-08-03T20:39:07.567Z,27.40
2018-08-03T20:41:37.082Z,27.40
2018-08-03T20:44:06.095Z,27.30
2018-08-03T20:46:34.765Z,27.20
2018-08-03T20:49:03.702Z,27.10
2018-08-03T20:51:32.741Z,27.10
2018-08-03T20:54:01.322Z,27.00
2018-08-03T20:56:30.096Z,26.90
2018-08-03T20:58:59.934Z,26.80
2018-08-03T21:01:28.680Z,26.80
2018-08-03T21:03:58.391Z,26.70
2018-08-03T21:06:27.507Z,26.60
2018-08-03T21:08:56.330Z,26.60
2018-08-03T21:11:25.106Z,26.50
2018-08-03T21:16:47.006Z,26.50
2018-08-03T21:19:20.428Z,26.50
2018-08-03T21:21:53.284Z,26.50
2018-08-03T21:24:28.775Z,26.50
2018-08-03T21:27:00.674Z,26.50
2018-08-03T21:29:33.225Z,26.50
2018-08-03T21:32:01.767Z,26.50
2018-08-03T21:34:32.593Z,26.50
2018-08-03T21:37:09.471Z,26.50
2018-08-03T21:39:52.483Z,26.60
2018-08-03T21:42:21.269Z,26.50
2018-08-03T21:44:49.994Z,26.50
2018-08-03T21:47:18.855Z,26.40
2018-08-03T21:49:47.542Z,26.40
2018-08-03T21:52:16.977Z,26.40
2018-08-03T21:54:45.906Z,26.30
2018-08-03T21:57:14.868Z,26.30
2018-08-03T21:59:43.417Z,26.30
2018-08-03T22:02:12.805Z,26.30
2018-08-03T22:04:41.692Z,26.30
2018-08-03T22:07:10.703Z,26.20
2018-08-03T22:09:39.894Z,26.20
2018-08-03T22:12:09.318Z,26.20
2018-08-03T22:14:38.407Z,26.20
2018-08-03T22:17:07.249Z,26.20
2018-08-03T22:19:36.082Z,26.20
2018-08-03T22:22:05.075Z,26.10
2018-08-03T22:24:34.543Z,26.10
2018-08-03T22:27:03.466Z,26.10
2018-08-03T22:29:32.175Z,26.10
2018-08-03T22:32:01.244Z,26.00
2018-08-03T22:34:30.348Z,26.10
2018-08-03T22:36:59.831Z,26.00
2018-08-03T22:39:28.829Z,26.00
2018-08-03T22:41:57.517Z,26.00
2018-08-03T22:44:26.533Z,25.80
2018-08-03T22:46:55.216Z,25.70
2018-08-03T22:49:24.170Z,25.50
2018-08-03T22:51:52.817Z,25.50
2018-08-03T22:54:21.467Z,25.50
2018-08-03T22:56:50.118Z,25.50
2018-08-03T22:59:18.982Z,25.50
2018-08-03T23:01:47.650Z,25.50
2018-08-03T23:04:16.098Z,25.40
2018-08-03T23:06:45.598Z,25.40
2018-08-03T23:09:14.678Z,25.30
2018-08-03T23:11:43.496Z,25.40
2018-08-03T23:14:13.003Z,25.50
2018-08-03T23:16:41.701Z,25.50
2018-08-03T23:19:10.526Z,25.30
2018-08-03T23:21:39.421Z,25.30
2018-08-03T23:24:08.229Z,25.20
2018-08-03T23:26:37.044Z,25.20
2018-08-03T23:29:05.593Z,25.10
2018-08-03T23:31:34.535Z,24.90
2018-08-03T23:34:03.113Z,24.80
2018-08-03T23:36:31.702Z,24.80
2018-08-03T23:39:00.670Z,24.80
2018-08-03T23:41:29.302Z,24.80
2018-08-03T23:43:58.676Z,24.80
2018-08-03T23:46:27.533Z,24.80
2018-08-03T23:48:56.075Z,24.90
2018-08-03T23:51:24.658Z,24.90
2018-08-03T23:53:55.598Z,24.70
2018-08-03T23:56:24.346Z,24.70
2018-08-03T23:58:53.336Z,24.50
